sensor_id;sensor_type;location;lat;lon;timestamp;P1;durP1;ratioP1;P2;durP2;ratioP2
20417;SDS011;10368;51.436;6.774;2023-04-03T00:00:36;10.93;;;8.20;;
20417;SDS011;10368;51.436;6.774;2023-04-03T00:03:04;8.67;;;7.53;;
20417;SDS011;10368;51.436;6.774;2023-04-03T00:05:31;8.37;;;6.93;;
20417;SDS011;10368;51.436;6.774;2023-04-03T00:07:59;13.73;;;7.93;;
20417;SDS011;10368;51.436;6.774;2023-04-03T00:10:28;8.80;;;6.87;;
20417;SDS011;10368;51.436;6.774;2023-04-03T00:12:55;12.90;;;8.53;;
20417;SDS011;10368;51.436;6.774;2023-04-03T00:15:22;10.93;;;7.37;;
20417;SDS011;10368;51.436;6.774;2023-04-03T00:17:50;11.63;;;6.87;;
20417;SDS011;10368;51.436;6.774;2023-04-03T00:20:17;9.27;;;7.10;;
20417;SDS011;10368;51.436;6.774;2023-04-03T00:22:44;10.10;;;7.47;;
20417;SDS011;10368;51.436;6.774;2023-04-03T00:25:12;8.37;;;7.07;;
20417;SDS011;10368;51.436;6.774;2023-04-03T00:27:39;8.90;;;6.63;;
20417;SDS011;10368;51.436;6.774;2023-04-03T00:30:07;10.63;;;7.20;;
20417;SDS011;10368;51.436;6.774;2023-04-03T00:32:35;8.23;;;6.70;;
20417;SDS011;10368;51.436;6.774;2023-04-03T00:35:02;8.73;;;7.43;;
20417;SDS011;10368;51.436;6.774;2023-04-03T00:37:29;8.87;;;7.50;;
20417;SDS011;10368;51.436;6.774;2023-04-03T00:39:57;11.67;;;7.37;;
20417;SDS011;10368;51.436;6.774;2023-04-03T00:42:24;9.77;;;7.40;;
20417;SDS011;10368;51.436;6.774;2023-04-03T00:47:26;9.63;;;7.83;;
20417;SDS011;10368;51.436;6.774;2023-04-03T00:49:54;8.63;;;7.53;;
20417;SDS011;10368;51.436;6.774;2023-04-03T00:52:22;11.23;;;8.10;;
20417;SDS011;10368;51.436;6.774;2023-04-03T00:54:51;9.13;;;7.00;;
20417;SDS011;10368;51.436;6.774;2023-04-03T00:57:19;11.47;;;8.10;;
20417;SDS011;10368;51.436;6.774;2023-04-03T00:59:46;10.10;;;8.33;;
20417;SDS011;10368;51.436;6.774;2023-04-03T01:02:16;9.17;;;8.27;;
20417;SDS011;10368;51.436;6.774;2023-04-03T01:04:43;9.30;;;8.20;;
20417;SDS011;10368;51.436;6.774;2023-04-03T01:07:12;10.40;;;8.07;;
20417;SDS011;10368;51.436;6.774;2023-04-03T01:09:41;14.83;;;9.80;;
20417;SDS011;10368;51.436;6.774;2023-04-03T01:12:25;9.67;;;8.67;;
20417;SDS011;10368;51.436;6.774;2023-04-03T01:14:57;11.13;;;8.53;;
20417;SDS011;10368;51.436;6.774;2023-04-03T01:17:30;11.10;;;8.77;;
20417;SDS011;10368;51.436;6.774;2023-04-03T01:20:07;10.87;;;8.33;;
20417;SDS011;10368;51.436;6.774;2023-04-03T01:25:19;18.70;;;8.87;;
20417;SDS011;10368;51.436;6.774;2023-04-03T01:27:46;12.10;;;9.27;;
20417;SDS011;10368;51.436;6.774;2023-04-03T01:30:14;10.90;;;9.30;;
20417;SDS011;10368;51.436;6.774;2023-04-03T01:32:43;9.83;;;8.40;;
20417;SDS011;10368;51.436;6.774;2023-04-03T01:35:11;9.67;;;8.67;;
20417;SDS011;10368;51.436;6.774;2023-04-03T01:37:38;13.93;;;9.10;;
20417;SDS011;10368;51.436;6.774;2023-04-03T01:40:06;10.03;;;8.17;;
20417;SDS011;10368;51.436;6.774;2023-04-03T01:42:34;9.73;;;8.70;;
20417;SDS011;10368;51.436;6.774;2023-04-03T01:45:01;13.23;;;8.17;;
20417;SDS011;10368;51.436;6.774;2023-04-03T01:47:28;9.77;;;8.60;;
20417;SDS011;10368;51.436;6.774;2023-04-03T01:49:56;14.13;;;11.50;;
20417;SDS011;10368;51.436;6.774;2023-04-03T01:52:23;10.97;;;9.80;;
20417;SDS011;10368;51.436;6.774;2023-04-03T01:54:50;11.47;;;8.93;;
20417;SDS011;10368;51.436;6.774;2023-04-03T01:57:17;11.33;;;9.40;;
20417;SDS011;10368;51.436;6.774;2023-04-03T01:59:45;14.00;;;8.73;;
20417;SDS011;10368;51.436;6.774;2023-04-03T02:02:12;15.87;;;8.50;;
20417;SDS011;10368;51.436;6.774;2023-04-03T02:04:40;11.17;;;8.20;;
20417;SDS011;10368;51.436;6.774;2023-04-03T02:07:08;10.90;;;8.87;;
20417;SDS011;10368;51.436;6.774;2023-04-03T02:09:35;10.67;;;8.30;;
20417;SDS011;10368;51.436;6.774;2023-04-03T02:12:02;10.30;;;7.30;;
20417;SDS011;10368;51.436;6.774;2023-04-03T02:14:29;9.90;;;7.00;;
20417;SDS011;10368;51.436;6.774;2023-04-03T02:16:56;8.13;;;6.60;;
20417;SDS011;10368;51.436;6.774;2023-04-03T02:19:24;7.73;;;6.53;;
20417;SDS011;10368;51.436;6.774;2023-04-03T02:21:51;6.77;;;6.07;;
20417;SDS011;10368;51.436;6.774;2023-04-03T02:24:18;9.67;;;6.47;;
20417;SDS011;10368;51.436;6.774;2023-04-03T02:26:45;8.47;;;6.90;;
20417;SDS011;10368;51.436;6.774;2023-04-03T02:29:13;10.77;;;6.47;;
20417;SDS011;10368;51.436;6.774;2023-04-03T02:31:40;6.83;;;5.63;;
20417;SDS011;10368;51.436;6.774;2023-04-03T02:34:07;6.87;;;5.90;;
20417;SDS011;10368;51.436;6.774;2023-04-03T02:36:35;7.83;;;5.60;;
20417;SDS011;10368;51.436;6.774;2023-04-03T02:39:02;8.53;;;5.40;;
20417;SDS011;10368;51.436;6.774;2023-04-03T02:41:29;7.00;;;5.30;;
20417;SDS011;10368;51.436;6.774;2023-04-03T02:44:03;5.80;;;5.13;;
20417;SDS011;10368;51.436;6.774;2023-04-03T02:46:33;7.60;;;5.23;;
20417;SDS011;10368;51.436;6.774;2023-04-03T02:49:00;7.13;;;5.23;;
20417;SDS011;10368;51.436;6.774;2023-04-03T02:51:27;9.80;;;5.53;;
20417;SDS011;10368;51.436;6.774;2023-04-03T02:53:55;5.83;;;5.10;;
20417;SDS011;10368;51.436;6.774;2023-04-03T02:56:22;5.40;;;4.90;;
20417;SDS011;10368;51.436;6.774;2023-04-03T02:58:49;5.57;;;4.03;;
20417;SDS011;10368;51.436;6.774;2023-04-03T03:01:17;6.33;;;4.60;;
20417;SDS011;10368;51.436;6.774;2023-04-03T03:03:44;10.47;;;4.50;;
20417;SDS011;10368;51.436;6.774;2023-04-03T03:06:13;8.17;;;4.20;;
20417;SDS011;10368;51.436;6.774;2023-04-03T03:08:41;8.90;;;4.57;;
20417;SDS011;10368;51.436;6.774;2023-04-03T03:11:09;6.67;;;3.83;;
20417;SDS011;10368;51.436;6.774;2023-04-03T03:13:36;5.40;;;4.23;;
20417;SDS011;10368;51.436;6.774;2023-04-03T03:16:03;7.40;;;4.20;;
20417;SDS011;10368;51.436;6.774;2023-04-03T03:18:32;5.60;;;3.77;;
20417;SDS011;10368;51.436;6.774;2023-04-03T03:21:02;6.70;;;3.53;;
20417;SDS011;10368;51.436;6.774;2023-04-03T03:23:31;5.00;;;3.23;;
20417;SDS011;10368;51.436;6.774;2023-04-03T03:25:59;5.70;;;3.03;;
20417;SDS011;10368;51.436;6.774;2023-04-03T03:28:27;7.47;;;3.77;;
20417;SDS011;10368;51.436;6.774;2023-04-03T03:30:54;5.00;;;3.83;;
20417;SDS011;10368;51.436;6.774;2023-04-03T03:33:21;5.70;;;3.13;;
20417;SDS011;10368;51.436;6.774;2023-04-03T03:35:49;5.33;;;3.10;;
20417;SDS011;10368;51.436;6.774;2023-04-03T03:38:16;6.10;;;3.43;;
20417;SDS011;10368;51.436;6.774;2023-04-03T03:40:43;6.90;;;2.93;;
20417;SDS011;10368;51.436;6.774;2023-04-03T03:43:11;6.73;;;3.23;;
20417;SDS011;10368;51.436;6.774;2023-04-03T03:45:38;5.80;;;3.27;;
20417;SDS011;10368;51.436;6.774;2023-04-03T03:48:06;9.73;;;3.23;;
20417;SDS011;10368;51.436;6.774;2023-04-03T03:50:33;5.13;;;2.80;;
20417;SDS011;10368;51.436;6.774;2023-04-03T03:53:00;6.67;;;2.93;;
20417;SDS011;10368;51.436;6.774;2023-04-03T03:55:27;4.23;;;3.00;;
20417;SDS011;10368;51.436;6.774;2023-04-03T03:57:55;4.37;;;2.50;;
20417;SDS011;10368;51.436;6.774;2023-04-03T04:00:22;4.20;;;2.70;;
20417;SDS011;10368;51.436;6.774;2023-04-03T04:02:49;4.97;;;2.90;;
20417;SDS011;10368;51.436;6.774;2023-04-03T04:05:16;5.40;;;2.40;;
20417;SDS011;10368;51.436;6.774;2023-04-03T04:07:44;3.93;;;3.13;;
20417;SDS011;10368;51.436;6.774;2023-04-03T04:10:11;6.30;;;3.00;;
20417;SDS011;10368;51.436;6.774;2023-04-03T04:12:39;7.37;;;2.40;;
20417;SDS011;10368;51.436;6.774;2023-04-03T04:15:07;5.43;;;2.87;;
20417;SDS011;10368;51.436;6.774;2023-04-03T04:17:34;3.37;;;2.60;;
20417;SDS011;10368;51.436;6.774;2023-04-03T04:20:02;4.33;;;2.40;;
20417;SDS011;10368;51.436;6.774;2023-04-03T04:22:33;6.00;;;2.30;;
20417;SDS011;10368;51.436;6.774;2023-04-03T04:25:06;6.90;;;2.67;;
20417;SDS011;10368;51.436;6.774;2023-04-03T04:27:34;5.00;;;2.40;;
20417;SDS011;10368;51.436;6.774;2023-04-03T04:30:01;4.00;;;2.50;;
20417;SDS011;10368;51.436;6.774;2023-04-03T04:32:30;5.17;;;2.77;;
20417;SDS011;10368;51.436;6.774;2023-04-03T04:34:57;8.97;;;2.70;;
20417;SDS011;10368;51.436;6.774;2023-04-03T04:37:25;5.27;;;2.87;;
20417;SDS011;10368;51.436;6.774;2023-04-03T04:39:52;6.13;;;2.60;;
20417;SDS011;10368;51.436;6.774;2023-04-03T04:42:19;2.13;;;1.93;;
20417;SDS011;10368;51.436;6.774;2023-04-03T04:44:46;6.80;;;3.20;;
20417;SDS011;10368;51.436;6.774;2023-04-03T04:47:13;4.50;;;2.10;;
20417;SDS011;10368;51.436;6.774;2023-04-03T04:49:41;5.27;;;2.40;;
20417;SDS011;10368;51.436;6.774;2023-04-03T04:52:08;4.37;;;2.80;;
20417;SDS011;10368;51.436;6.774;2023-04-03T04:54:35;5.07;;;2.50;;
20417;SDS011;10368;51.436;6.774;2023-04-03T04:57:02;6.40;;;3.23;;
20417;SDS011;10368;51.436;6.774;2023-04-03T04:59:30;4.73;;;2.17;;
20417;SDS011;10368;51.436;6.774;2023-04-03T05:01:57;6.63;;;2.70;;
20417;SDS011;10368;51.436;6.774;2023-04-03T05:04:24;3.07;;;1.90;;
20417;SDS011;10368;51.436;6.774;2023-04-03T05:06:52;9.13;;;2.70;;
20417;SDS011;10368;51.436;6.774;2023-04-03T05:09:19;5.07;;;2.40;;
20417;SDS011;10368;51.436;6.774;2023-04-03T05:11:46;5.33;;;2.47;;
20417;SDS011;10368;51.436;6.774;2023-04-03T05:14:14;4.30;;;2.93;;
20417;SDS011;10368;51.436;6.774;2023-04-03T05:16:41;4.33;;;2.30;;
20417;SDS011;10368;51.436;6.774;2023-04-03T05:19:08;5.90;;;2.80;;
20417;SDS011;10368;51.436;6.774;2023-04-03T05:21:35;10.03;;;4.13;;
20417;SDS011;10368;51.436;6.774;2023-04-03T05:24:02;5.50;;;2.77;;
20417;SDS011;10368;51.436;6.774;2023-04-03T05:26:33;8.40;;;2.70;;
20417;SDS011;10368;51.436;6.774;2023-04-03T05:29:00;6.73;;;2.77;;
20417;SDS011;10368;51.436;6.774;2023-04-03T05:31:27;8.03;;;3.03;;
20417;SDS011;10368;51.436;6.774;2023-04-03T05:33:56;6.20;;;2.93;;
20417;SDS011;10368;51.436;6.774;2023-04-03T05:36:23;4.47;;;2.60;;
20417;SDS011;10368;51.436;6.774;2023-04-03T05:38:50;5.73;;;3.03;;
20417;SDS011;10368;51.436;6.774;2023-04-03T05:41:18;7.33;;;3.17;;
20417;SDS011;10368;51.436;6.774;2023-04-03T05:43:47;9.37;;;3.47;;
20417;SDS011;10368;51.436;6.774;2023-04-03T05:46:15;8.57;;;3.30;;
20417;SDS011;10368;51.436;6.774;2023-04-03T05:48:43;7.67;;;3.17;;
20417;SDS011;10368;51.436;6.774;2023-04-03T05:51:15;5.53;;;3.10;;
20417;SDS011;10368;51.436;6.774;2023-04-03T05:53:42;6.93;;;3.40;;
20417;SDS011;10368;51.436;6.774;2023-04-03T05:56:13;12.20;;;3.37;;
20417;SDS011;10368;51.436;6.774;2023-04-03T05:58:41;11.63;;;3.77;;
20417;SDS011;10368;51.436;6.774;2023-04-03T06:01:08;8.43;;;3.60;;
20417;SDS011;10368;51.436;6.774;2023-04-03T06:03:35;5.70;;;3.13;;
20417;SDS011;10368;51.436;6.774;2023-04-03T06:06:05;7.10;;;3.40;;
20417;SDS011;10368;51.436;6.774;2023-04-03T06:08:34;7.83;;;3.73;;
20417;SDS011;10368;51.436;6.774;2023-04-03T06:11:01;7.03;;;3.27;;
20417;SDS011;10368;51.436;6.774;2023-04-03T06:13:29;8.50;;;4.07;;
20417;SDS011;10368;51.436;6.774;2023-04-03T06:15:56;7.10;;;3.37;;
20417;SDS011;10368;51.436;6.774;2023-04-03T06:18:23;9.07;;;3.50;;
20417;SDS011;10368;51.436;6.774;2023-04-03T06:20:50;7.07;;;3.43;;
20417;SDS011;10368;51.436;6.774;2023-04-03T06:23:18;5.50;;;3.20;;
20417;SDS011;10368;51.436;6.774;2023-04-03T06:25:45;4.57;;;3.47;;
20417;SDS011;10368;51.436;6.774;2023-04-03T06:28:13;6.70;;;2.83;;
20417;SDS011;10368;51.436;6.774;2023-04-03T06:30:40;3.87;;;2.53;;
20417;SDS011;10368;51.436;6.774;2023-04-03T06:33:07;6.87;;;3.23;;
20417;SDS011;10368;51.436;6.774;2023-04-03T06:35:35;7.90;;;3.27;;
20417;SDS011;10368;51.436;6.774;2023-04-03T06:38:04;8.03;;;3.30;;
20417;SDS011;10368;51.436;6.774;2023-04-03T06:40:35;12.63;;;3.23;;
20417;SDS011;10368;51.436;6.774;2023-04-03T06:43:03;7.40;;;3.07;;
20417;SDS011;10368;51.436;6.774;2023-04-03T06:45:31;5.63;;;3.03;;
20417;SDS011;10368;51.436;6.774;2023-04-03T06:47:58;9.47;;;3.20;;
20417;SDS011;10368;51.436;6.774;2023-04-03T06:50:26;4.37;;;2.43;;
20417;SDS011;10368;51.436;6.774;2023-04-03T06:52:53;4.73;;;2.57;;
20417;SDS011;10368;51.436;6.774;2023-04-03T06:55:20;5.47;;;2.73;;
20417;SDS011;10368;51.436;6.774;2023-04-03T06:57:48;9.27;;;2.73;;
20417;SDS011;10368;51.436;6.774;2023-04-03T07:00:15;5.13;;;2.20;;
20417;SDS011;10368;51.436;6.774;2023-04-03T07:02:42;9.67;;;2.37;;
20417;SDS011;10368;51.436;6.774;2023-04-03T07:05:10;5.07;;;2.43;;
20417;SDS011;10368;51.436;6.774;2023-04-03T07:07:37;4.83;;;2.27;;
20417;SDS011;10368;51.436;6.774;2023-04-03T07:10:05;8.13;;;2.80;;
20417;SDS011;10368;51.436;6.774;2023-04-03T07:12:33;6.27;;;2.37;;
20417;SDS011;10368;51.436;6.774;2023-04-03T07:15:00;5.73;;;2.97;;
20417;SDS011;10368;51.436;6.774;2023-04-03T07:17:27;5.90;;;2.53;;
20417;SDS011;10368;51.436;6.774;2023-04-03T07:19:55;4.57;;;2.47;;
20417;SDS011;10368;51.436;6.774;2023-04-03T07:22:22;8.97;;;2.60;;
20417;SDS011;10368;51.436;6.774;2023-04-03T07:24:49;7.07;;;2.50;;
20417;SDS011;10368;51.436;6.774;2023-04-03T07:27:16;6.60;;;2.27;;
20417;SDS011;10368;51.436;6.774;2023-04-03T07:29:44;3.37;;;2.30;;
20417;SDS011;10368;51.436;6.774;2023-04-03T07:32:11;6.67;;;2.40;;
20417;SDS011;10368;51.436;6.774;2023-04-03T07:34:38;7.47;;;2.33;;
20417;SDS011;10368;51.436;6.774;2023-04-03T07:37:05;4.30;;;2.57;;
20417;SDS011;10368;51.436;6.774;2023-04-03T07:39:33;10.47;;;4.43;;
20417;SDS011;10368;51.436;6.774;2023-04-03T07:42:00;11.03;;;3.23;;
20417;SDS011;10368;51.436;6.774;2023-04-03T07:44:28;5.63;;;2.33;;
20417;SDS011;10368;51.436;6.774;2023-04-03T07:46:55;4.97;;;2.27;;
20417;SDS011;10368;51.436;6.774;2023-04-03T07:49:22;5.97;;;2.43;;
20417;SDS011;10368;51.436;6.774;2023-04-03T07:51:50;5.73;;;2.60;;
20417;SDS011;10368;51.436;6.774;2023-04-03T07:54:17;5.13;;;2.30;;
20417;SDS011;10368;51.436;6.774;2023-04-03T07:56:44;3.70;;;2.40;;
20417;SDS011;10368;51.436;6.774;2023-04-03T07:59:11;7.23;;;2.70;;
20417;SDS011;10368;51.436;6.774;2023-04-03T08:01:39;5.60;;;2.37;;
20417;SDS011;10368;51.436;6.774;2023-04-03T08:04:06;5.33;;;2.47;;
20417;SDS011;10368;51.436;6.774;2023-04-03T08:06:34;6.90;;;2.50;;
20417;SDS011;10368;51.436;6.774;2023-04-03T08:09:12;5.33;;;2.00;;
20417;SDS011;10368;51.436;6.774;2023-04-03T08:11:40;5.20;;;1.80;;
20417;SDS011;10368;51.436;6.774;2023-04-03T08:14:08;7.93;;;2.37;;
20417;SDS011;10368;51.436;6.774;2023-04-03T08:16:44;4.13;;;2.13;;
20417;SDS011;10368;51.436;6.774;2023-04-03T08:19:12;10.33;;;2.20;;
20417;SDS011;10368;51.436;6.774;2023-04-03T08:21:50;4.83;;;2.50;;
20417;SDS011;10368;51.436;6.774;2023-04-03T08:24:18;6.87;;;2.40;;
20417;SDS011;10368;51.436;6.774;2023-04-03T08:26:45;3.70;;;2.10;;
20417;SDS011;10368;51.436;6.774;2023-04-03T08:29:12;6.53;;;1.93;;
20417;SDS011;10368;51.436;6.774;2023-04-03T08:31:40;5.77;;;2.73;;
20417;SDS011;10368;51.436;6.774;2023-04-03T08:34:07;2.77;;;2.07;;
20417;SDS011;10368;51.436;6.774;2023-04-03T08:36:34;7.03;;;3.50;;
20417;SDS011;10368;51.436;6.774;2023-04-03T08:39:02;7.80;;;2.50;;
20417;SDS011;10368;51.436;6.774;2023-04-03T08:49:10;3.67;;;2.20;;
20417;SDS011;10368;51.436;6.774;2023-04-03T08:51:41;4.93;;;1.60;;
20417;SDS011;10368;51.436;6.774;2023-04-03T08:57:03;9.47;;;1.87;;
20417;SDS011;10368;51.436;6.774;2023-04-03T08:59:34;5.10;;;1.40;;
20417;SDS011;10368;51.436;6.774;2023-04-03T09:02:02;5.87;;;2.50;;
20417;SDS011;10368;51.436;6.774;2023-04-03T09:04:33;4.23;;;1.67;;
20417;SDS011;10368;51.436;6.774;2023-04-03T09:07:07;3.43;;;1.60;;
20417;SDS011;10368;51.436;6.774;2023-04-03T09:09:38;2.90;;;1.70;;
20417;SDS011;10368;51.436;6.774;2023-04-03T09:17:16;3.37;;;1.20;;
20417;SDS011;10368;51.436;6.774;2023-04-03T09:19:51;6.20;;;1.80;;
20417;SDS011;10368;51.436;6.774;2023-04-03T09:22:21;2.37;;;1.50;;
20417;SDS011;10368;51.436;6.774;2023-04-03T09:24:52;2.43;;;1.23;;
20417;SDS011;10368;51.436;6.774;2023-04-03T09:27:23;4.40;;;1.30;;
20417;SDS011;10368;51.436;6.774;2023-04-03T09:29:52;4.00;;;1.43;;
20417;SDS011;10368;51.436;6.774;2023-04-03T09:34:53;2.50;;;1.00;;
20417;SDS011;10368;51.436;6.774;2023-04-03T09:37:33;1.10;;;1.00;;
20417;SDS011;10368;51.436;6.774;2023-04-03T09:40:01;2.73;;;1.57;;
20417;SDS011;10368;51.436;6.774;2023-04-03T09:42:30;2.57;;;1.50;;
20417;SDS011;10368;51.436;6.774;2023-04-03T09:44:59;2.47;;;1.27;;
20417;SDS011;10368;51.436;6.774;2023-04-03T09:52:44;1.57;;;1.00;;
20417;SDS011;10368;51.436;6.774;2023-04-03T09:57:43;5.03;;;1.40;;
20417;SDS011;10368;51.436;6.774;2023-04-03T10:00:19;3.93;;;1.40;;
20417;SDS011;10368;51.436;6.774;2023-04-03T10:02:49;3.10;;;0.97;;
20417;SDS011;10368;51.436;6.774;2023-04-03T10:05:34;1.27;;;0.90;;
20417;SDS011;10368;51.436;6.774;2023-04-03T10:08:08;2.80;;;0.93;;
20417;SDS011;10368;51.436;6.774;2023-04-03T10:10:36;2.63;;;1.07;;
20417;SDS011;10368;51.436;6.774;2023-04-03T10:16:15;3.30;;;0.83;;
20417;SDS011;10368;51.436;6.774;2023-04-03T10:20:50;2.47;;;0.93;;
20417;SDS011;10368;51.436;6.774;2023-04-03T10:23:21;1.43;;;0.80;;
20417;SDS011;10368;51.436;6.774;2023-04-03T10:28:48;4.43;;;0.90;;
20417;SDS011;10368;51.436;6.774;2023-04-03T10:31:37;1.07;;;0.80;;
20417;SDS011;10368;51.436;6.774;2023-04-03T10:34:30;1.57;;;0.90;;
20417;SDS011;10368;51.436;6.774;2023-04-03T10:42:03;3.03;;;1.60;;
20417;SDS011;10368;51.436;6.774;2023-04-03T10:44:52;2.77;;;1.00;;
20417;SDS011;10368;51.436;6.774;2023-04-03T10:47:24;1.70;;;1.00;;
20417;SDS011;10368;51.436;6.774;2023-04-03T10:50:06;2.70;;;1.10;;
20417;SDS011;10368;51.436;6.774;2023-04-03T10:52:43;3.03;;;1.20;;
20417;SDS011;10368;51.436;6.774;2023-04-03T10:57:40;3.45;;;1.20;;
20417;SDS011;10368;51.436;6.774;2023-04-03T11:00:16;4.07;;;1.85;;
20417;SDS011;10368;51.436;6.774;2023-04-03T11:02:48;1.88;;;1.20;;
20417;SDS011;10368;51.436;6.774;2023-04-03T11:05:26;1.60;;;1.13;;
20417;SDS011;10368;51.436;6.774;2023-04-03T11:07:56;1.75;;;1.10;;
20417;SDS011;10368;51.436;6.774;2023-04-03T11:10:46;1.23;;;1.02;;
20417;SDS011;10368;51.436;6.774;2023-04-03T11:13:17;2.40;;;1.77;;
20417;SDS011;10368;51.436;6.774;2023-04-03T11:15:46;13.60;;;12.18;;
20417;SDS011;10368;51.436;6.774;2023-04-03T11:18:15;3.85;;;2.97;;
20417;SDS011;10368;51.436;6.774;2023-04-03T11:20:50;2.08;;;1.50;;
20417;SDS011;10368;51.436;6.774;2023-04-03T11:23:32;2.92;;;1.67;;
20417;SDS011;10368;51.436;6.774;2023-04-03T11:26:18;2.13;;;1.70;;
20417;SDS011;10368;51.436;6.774;2023-04-03T11:28:52;4.35;;;2.55;;
20417;SDS011;10368;51.436;6.774;2023-04-03T11:31:31;3.45;;;1.60;;
20417;SDS011;10368;51.436;6.774;2023-04-03T11:34:06;1.52;;;1.40;;
20417;SDS011;10368;51.436;6.774;2023-04-03T11:37:11;3.15;;;1.35;;
20417;SDS011;10368;51.436;6.774;2023-04-03T11:39:31;2.70;;;1.35;;
20417;SDS011;10368;51.436;6.774;2023-04-03T11:44:46;4.47;;;1.98;;
20417;SDS011;10368;51.436;6.774;2023-04-03T11:47:43;2.80;;;1.20;;
20417;SDS011;10368;51.436;6.774;2023-04-03T11:50:05;2.60;;;1.58;;
20417;SDS011;10368;51.436;6.774;2023-04-03T12:08:44;2.58;;;1.75;;
20417;SDS011;10368;51.436;6.774;2023-04-03T12:16:20;2.10;;;1.13;;
20417;SDS011;10368;51.436;6.774;2023-04-03T12:26:34;3.58;;;2.20;;
20417;SDS011;10368;51.436;6.774;2023-04-03T12:31:55;2.85;;;1.50;;
20417;SDS011;10368;51.436;6.774;2023-04-03T12:37:57;2.00;;;1.17;;
20417;SDS011;10368;51.436;6.774;2023-04-03T12:48:30;3.05;;;1.40;;
20417;SDS011;10368;51.436;6.774;2023-04-03T12:51:02;1.38;;;1.27;;
20417;SDS011;10368;51.436;6.774;2023-04-03T12:53:33;3.25;;;2.00;;
20417;SDS011;10368;51.436;6.774;2023-04-03T13:01:54;2.10;;;1.55;;
20417;SDS011;10368;51.436;6.774;2023-04-03T13:04:29;5.60;;;1.58;;
20417;SDS011;10368;51.436;6.774;2023-04-03T13:06:58;2.67;;;1.13;;
20417;SDS011;10368;51.436;6.774;2023-04-03T13:11:56;3.00;;;2.00;;
20417;SDS011;10368;51.436;6.774;2023-04-03T13:14:37;2.88;;;1.92;;
20417;SDS011;10368;51.436;6.774;2023-04-03T13:17:15;2.72;;;1.20;;
20417;SDS011;10368;51.436;6.774;2023-04-03T13:19:43;1.98;;;1.33;;
20417;SDS011;10368;51.436;6.774;2023-04-03T13:25:11;1.75;;;1.10;;
20417;SDS011;10368;51.436;6.774;2023-04-03T13:27:41;2.78;;;1.60;;
20417;SDS011;10368;51.436;6.774;2023-04-03T13:30:20;1.42;;;1.27;;
20417;SDS011;10368;51.436;6.774;2023-04-03T13:33:00;2.70;;;1.25;;
20417;SDS011;10368;51.436;6.774;2023-04-03T13:35:35;1.45;;;1.08;;
20417;SDS011;10368;51.436;6.774;2023-04-03T13:40:48;2.20;;;1.40;;
20417;SDS011;10368;51.436;6.774;2023-04-03T13:43:26;5.28;;;2.38;;
20417;SDS011;10368;51.436;6.774;2023-04-03T13:46:05;2.83;;;1.40;;
20417;SDS011;10368;51.436;6.774;2023-04-03T13:48:43;2.40;;;1.02;;
20417;SDS011;10368;51.436;6.774;2023-04-03T13:53:43;6.10;;;1.95;;
20417;SDS011;10368;51.436;6.774;2023-04-03T14:01:51;2.13;;;1.10;;
20417;SDS011;10368;51.436;6.774;2023-04-03T14:04:25;1.90;;;1.30;;
20417;SDS011;10368;51.436;6.774;2023-04-03T14:06:55;2.92;;;1.40;;
20417;SDS011;10368;51.436;6.774;2023-04-03T14:09:24;5.20;;;1.48;;
20417;SDS011;10368;51.436;6.774;2023-04-03T14:11:57;4.15;;;1.30;;
20417;SDS011;10368;51.436;6.774;2023-04-03T14:14:32;1.38;;;1.10;;
20417;SDS011;10368;51.436;6.774;2023-04-03T14:17:02;6.03;;;5.10;;
20417;SDS011;10368;51.436;6.774;2023-04-03T14:19:51;4.25;;;1.63;;
20417;SDS011;10368;51.436;6.774;2023-04-03T14:22:23;2.95;;;1.08;;
20417;SDS011;10368;51.436;6.774;2023-04-03T14:24:52;3.15;;;1.67;;
20417;SDS011;10368;51.436;6.774;2023-04-03T14:29:47;2.20;;;0.98;;
20417;SDS011;10368;51.436;6.774;2023-04-03T14:32:16;1.98;;;1.50;;
20417;SDS011;10368;51.436;6.774;2023-04-03T14:34:44;1.52;;;1.00;;
20417;SDS011;10368;51.436;6.774;2023-04-03T14:37:13;2.13;;;0.93;;
20417;SDS011;10368;51.436;6.774;2023-04-03T14:39:42;2.35;;;1.25;;
20417;SDS011;10368;51.436;6.774;2023-04-03T14:42:15;3.53;;;2.55;;
20417;SDS011;10368;51.436;6.774;2023-04-03T14:44:47;2.65;;;1.40;;
20417;SDS011;10368;51.436;6.774;2023-04-03T14:47:21;3.97;;;1.13;;
20417;SDS011;10368;51.436;6.774;2023-04-03T14:49:58;2.20;;;1.65;;
20417;SDS011;10368;51.436;6.774;2023-04-03T14:52:31;4.32;;;2.00;;
20417;SDS011;10368;51.436;6.774;2023-04-03T14:55:00;3.35;;;3.05;;
20417;SDS011;10368;51.436;6.774;2023-04-03T14:57:28;5.35;;;4.65;;
20417;SDS011;10368;51.436;6.774;2023-04-03T14:59:56;2.83;;;1.60;;
20417;SDS011;10368;51.436;6.774;2023-04-03T15:02:25;1.73;;;1.30;;
20417;SDS011;10368;51.436;6.774;2023-04-03T15:05:07;2.45;;;0.90;;
20417;SDS011;10368;51.436;6.774;2023-04-03T15:07:36;2.50;;;1.30;;
20417;SDS011;10368;51.436;6.774;2023-04-03T15:10:27;2.55;;;1.48;;
20417;SDS011;10368;51.436;6.774;2023-04-03T15:12:54;1.38;;;1.02;;
20417;SDS011;10368;51.436;6.774;2023-04-03T15:15:22;1.70;;;1.40;;
20417;SDS011;10368;51.436;6.774;2023-04-03T15:17:51;12.18;;;9.18;;
20417;SDS011;10368;51.436;6.774;2023-04-03T15:20:21;10.48;;;9.43;;
20417;SDS011;10368;51.436;6.774;2023-04-03T15:22:50;3.83;;;1.98;;
20417;SDS011;10368;51.436;6.774;2023-04-03T15:25:16;2.60;;;2.25;;
20417;SDS011;10368;51.436;6.774;2023-04-03T15:27:44;3.08;;;1.35;;
20417;SDS011;10368;51.436;6.774;2023-04-03T15:30:13;2.33;;;1.40;;
20417;SDS011;10368;51.436;6.774;2023-04-03T15:32:42;1.85;;;1.60;;
20417;SDS011;10368;51.436;6.774;2023-04-03T15:35:09;3.03;;;1.52;;
20417;SDS011;10368;51.436;6.774;2023-04-03T15:37:36;3.42;;;1.30;;
20417;SDS011;10368;51.436;6.774;2023-04-03T15:40:04;4.50;;;2.28;;
20417;SDS011;10368;51.436;6.774;2023-04-03T15:42:32;2.67;;;1.42;;
20417;SDS011;10368;51.436;6.774;2023-04-03T15:44:59;2.40;;;1.17;;
20417;SDS011;10368;51.436;6.774;2023-04-03T15:47:26;4.05;;;1.58;;
20417;SDS011;10368;51.436;6.774;2023-04-03T15:49:53;2.60;;;1.40;;
20417;SDS011;10368;51.436;6.774;2023-04-03T15:52:21;1.83;;;1.27;;
20417;SDS011;10368;51.436;6.774;2023-04-03T15:54:48;1.60;;;1.33;;
20417;SDS011;10368;51.436;6.774;2023-04-03T15:57:15;1.73;;;1.25;;
20417;SDS011;10368;51.436;6.774;2023-04-03T15:59:42;3.88;;;1.45;;
20417;SDS011;10368;51.436;6.774;2023-04-03T16:02:09;5.90;;;3.13;;
20417;SDS011;10368;51.436;6.774;2023-04-03T16:04:39;4.45;;;1.90;;
20417;SDS011;10368;51.436;6.774;2023-04-03T16:07:06;4.25;;;1.52;;
20417;SDS011;10368;51.436;6.774;2023-04-03T16:09:34;2.95;;;1.60;;
20417;SDS011;10368;51.436;6.774;2023-04-03T16:12:01;3.50;;;1.70;;
20417;SDS011;10368;51.436;6.774;2023-04-03T16:14:28;4.95;;;1.42;;
20417;SDS011;10368;51.436;6.774;2023-04-03T16:16:57;3.42;;;1.70;;
20417;SDS011;10368;51.436;6.774;2023-04-03T16:19:25;1.73;;;1.30;;
20417;SDS011;10368;51.436;6.774;2023-04-03T16:21:53;2.53;;;1.50;;
20417;SDS011;10368;51.436;6.774;2023-04-03T16:24:20;4.95;;;1.30;;
20417;SDS011;10368;51.436;6.774;2023-04-03T16:26:47;1.38;;;1.17;;
20417;SDS011;10368;51.436;6.774;2023-04-03T16:29:14;2.78;;;1.30;;
20417;SDS011;10368;51.436;6.774;2023-04-03T16:31:41;2.00;;;1.38;;
20417;SDS011;10368;51.436;6.774;2023-04-03T16:34:09;4.57;;;2.30;;
20417;SDS011;10368;51.436;6.774;2023-04-03T16:36:36;2.75;;;2.40;;
20417;SDS011;10368;51.436;6.774;2023-04-03T16:39:06;1.95;;;1.60;;
20417;SDS011;10368;51.436;6.774;2023-04-03T16:41:35;4.43;;;1.60;;
20417;SDS011;10368;51.436;6.774;2023-04-03T16:44:03;6.03;;;1.80;;
20417;SDS011;10368;51.436;6.774;2023-04-03T16:46:30;5.40;;;2.90;;
20417;SDS011;10368;51.436;6.774;2023-04-03T16:48:57;4.63;;;1.88;;
20417;SDS011;10368;51.436;6.774;2023-04-03T16:51:24;4.05;;;2.30;;
20417;SDS011;10368;51.436;6.774;2023-04-03T16:53:52;7.47;;;2.60;;
20417;SDS011;10368;51.436;6.774;2023-04-03T16:56:19;4.35;;;3.15;;